Great Basin Natl Park, Nevada
Current Conditions -  °F | °C
As of 12:53 PM on Monday 24 Nov 2014 (Local Time) from KELY Reporting Station
Clear Clear  
Wind Chill: 35°   Ceiling: Unl
Heat Index: 42°   Visibility: 10mi
Dew Point: 23°   Wind: 13mph
Humidity: 47%   Direction: 20°NNE
Pressure: 30.4"   Gusts: NA
Location:  39°N, 114.25°W
Report Text: KELY 242053Z AUTO 02011KT 10SM CLR 06/M05 A3040 RMK AO2 SLP313 T00561050 58000
Loading
Personal Weather Stations






























Interactive Weather Map New forecast layout! Learn more

10-Day Weather Forecast

Advertisements
Track Severe Weather on mobile